sensor_id;sensor_type;location;lat;lon;timestamp;P1;durP1;ratioP1;P2;durP2;ratioP2
62788;SDS011;66401;42.016;21.454;2023-11-21T00:01:56;26.87;;;15.23;;
62788;SDS011;66401;42.016;21.454;2023-11-21T00:04:22;26.77;;;17.63;;
62788;SDS011;66401;42.016;21.454;2023-11-21T00:06:48;31.50;;;16.90;;
62788;SDS011;66401;42.016;21.454;2023-11-21T00:09:14;27.37;;;16.73;;
62788;SDS011;66401;42.016;21.454;2023-11-21T00:11:43;29.17;;;16.03;;
62788;SDS011;66401;42.016;21.454;2023-11-21T00:14:09;33.60;;;16.53;;
62788;SDS011;66401;42.016;21.454;2023-11-21T00:16:36;29.50;;;15.80;;
62788;SDS011;66401;42.016;21.454;2023-11-21T00:19:01;25.60;;;15.20;;
62788;SDS011;66401;42.016;21.454;2023-11-21T00:21:27;24.87;;;15.07;;
62788;SDS011;66401;42.016;21.454;2023-11-21T00:23:52;28.27;;;16.70;;
62788;SDS011;66401;42.016;21.454;2023-11-21T00:26:19;28.57;;;15.13;;
62788;SDS011;66401;42.016;21.454;2023-11-21T00:28:45;29.77;;;15.53;;
62788;SDS011;66401;42.016;21.454;2023-11-21T00:31:10;28.83;;;15.37;;
62788;SDS011;66401;42.016;21.454;2023-11-21T00:33:36;23.73;;;12.93;;
62788;SDS011;66401;42.016;21.454;2023-11-21T00:36:02;26.70;;;13.63;;
62788;SDS011;66401;42.016;21.454;2023-11-21T00:38:27;25.90;;;13.17;;
62788;SDS011;66401;42.016;21.454;2023-11-21T00:40:53;27.00;;;15.93;;
62788;SDS011;66401;42.016;21.454;2023-11-21T00:43:22;22.33;;;13.77;;
62788;SDS011;66401;42.016;21.454;2023-11-21T00:45:48;25.47;;;14.10;;
62788;SDS011;66401;42.016;21.454;2023-11-21T00:48:14;27.00;;;14.87;;
62788;SDS011;66401;42.016;21.454;2023-11-21T00:50:40;25.37;;;14.63;;
62788;SDS011;66401;42.016;21.454;2023-11-21T00:53:06;25.27;;;14.33;;
62788;SDS011;66401;42.016;21.454;2023-11-21T00:55:32;26.20;;;13.77;;
62788;SDS011;66401;42.016;21.454;2023-11-21T00:57:58;28.43;;;14.97;;
62788;SDS011;66401;42.016;21.454;2023-11-21T01:00:24;24.07;;;12.90;;
62788;SDS011;66401;42.016;21.454;2023-11-21T01:02:50;25.50;;;13.63;;
62788;SDS011;66401;42.016;21.454;2023-11-21T01:05:15;23.80;;;13.63;;
62788;SDS011;66401;42.016;21.454;2023-11-21T01:07:41;25.70;;;14.03;;
62788;SDS011;66401;42.016;21.454;2023-11-21T01:10:07;24.53;;;13.47;;
62788;SDS011;66401;42.016;21.454;2023-11-21T01:12:36;21.33;;;13.97;;
62788;SDS011;66401;42.016;21.454;2023-11-21T01:15:03;22.67;;;14.23;;
62788;SDS011;66401;42.016;21.454;2023-11-21T01:17:37;24.87;;;14.87;;
62788;SDS011;66401;42.016;21.454;2023-11-21T01:20:03;20.77;;;13.33;;
62788;SDS011;66401;42.016;21.454;2023-11-21T01:22:36;26.97;;;13.87;;
62788;SDS011;66401;42.016;21.454;2023-11-21T01:25:02;30.33;;;16.43;;
62788;SDS011;66401;42.016;21.454;2023-11-21T01:27:29;42.40;;;20.20;;
62788;SDS011;66401;42.016;21.454;2023-11-21T01:29:55;51.07;;;19.47;;
62788;SDS011;66401;42.016;21.454;2023-11-21T01:32:20;40.07;;;19.87;;
62788;SDS011;66401;42.016;21.454;2023-11-21T01:34:47;43.70;;;19.93;;
62788;SDS011;66401;42.016;21.454;2023-11-21T01:37:13;38.00;;;18.93;;
62788;SDS011;66401;42.016;21.454;2023-11-21T01:39:38;35.83;;;18.60;;
62788;SDS011;66401;42.016;21.454;2023-11-21T01:42:05;33.40;;;17.17;;
62788;SDS011;66401;42.016;21.454;2023-11-21T01:44:31;29.07;;;16.07;;
62788;SDS011;66401;42.016;21.454;2023-11-21T01:49:48;30.53;;;17.13;;
62788;SDS011;66401;42.016;21.454;2023-11-21T01:52:13;35.70;;;17.80;;
62788;SDS011;66401;42.016;21.454;2023-11-21T01:54:40;32.87;;;17.63;;
62788;SDS011;66401;42.016;21.454;2023-11-21T01:57:07;33.10;;;19.00;;
62788;SDS011;66401;42.016;21.454;2023-11-21T01:59:36;36.70;;;19.33;;
62788;SDS011;66401;42.016;21.454;2023-11-21T02:02:03;37.03;;;20.03;;
62788;SDS011;66401;42.016;21.454;2023-11-21T02:04:31;41.50;;;20.97;;
62788;SDS011;66401;42.016;21.454;2023-11-21T02:06:57;42.03;;;22.83;;
62788;SDS011;66401;42.016;21.454;2023-11-21T02:09:24;40.20;;;23.03;;
62788;SDS011;66401;42.016;21.454;2023-11-21T02:11:50;45.07;;;23.10;;
62788;SDS011;66401;42.016;21.454;2023-11-21T02:14:16;49.93;;;24.87;;
62788;SDS011;66401;42.016;21.454;2023-11-21T02:16:45;43.53;;;24.17;;
62788;SDS011;66401;42.016;21.454;2023-11-21T02:19:12;40.73;;;22.17;;
62788;SDS011;66401;42.016;21.454;2023-11-21T02:21:45;32.97;;;18.27;;
62788;SDS011;66401;42.016;21.454;2023-11-21T02:24:13;35.13;;;19.87;;
62788;SDS011;66401;42.016;21.454;2023-11-21T02:26:38;32.30;;;18.63;;
62788;SDS011;66401;42.016;21.454;2023-11-21T02:29:04;29.30;;;16.27;;
62788;SDS011;66401;42.016;21.454;2023-11-21T02:31:29;29.10;;;15.80;;
62788;SDS011;66401;42.016;21.454;2023-11-21T02:33:57;35.40;;;16.97;;
62788;SDS011;66401;42.016;21.454;2023-11-21T02:36:23;29.93;;;16.63;;
62788;SDS011;66401;42.016;21.454;2023-11-21T02:38:48;32.67;;;17.87;;
62788;SDS011;66401;42.016;21.454;2023-11-21T02:41:14;36.67;;;18.43;;
62788;SDS011;66401;42.016;21.454;2023-11-21T02:43:39;33.03;;;17.93;;
62788;SDS011;66401;42.016;21.454;2023-11-21T02:46:05;31.93;;;15.67;;
62788;SDS011;66401;42.016;21.454;2023-11-21T02:48:30;30.43;;;15.87;;
62788;SDS011;66401;42.016;21.454;2023-11-21T02:50:56;27.50;;;14.60;;
62788;SDS011;66401;42.016;21.454;2023-11-21T02:53:21;26.33;;;14.40;;
62788;SDS011;66401;42.016;21.454;2023-11-21T02:55:49;22.57;;;14.50;;
62788;SDS011;66401;42.016;21.454;2023-11-21T02:58:14;22.70;;;13.80;;
62788;SDS011;66401;42.016;21.454;2023-11-21T03:00:40;21.43;;;13.27;;
62788;SDS011;66401;42.016;21.454;2023-11-21T03:03:06;22.83;;;13.77;;
62788;SDS011;66401;42.016;21.454;2023-11-21T03:05:32;29.23;;;16.73;;
62788;SDS011;66401;42.016;21.454;2023-11-21T03:08:00;39.37;;;20.03;;
62788;SDS011;66401;42.016;21.454;2023-11-21T03:10:26;33.00;;;18.47;;
62788;SDS011;66401;42.016;21.454;2023-11-21T03:12:52;29.37;;;16.13;;
62788;SDS011;66401;42.016;21.454;2023-11-21T03:15:17;31.37;;;16.70;;
62788;SDS011;66401;42.016;21.454;2023-11-21T03:17:43;36.07;;;18.83;;
62788;SDS011;66401;42.016;21.454;2023-11-21T03:20:09;29.50;;;18.23;;
62788;SDS011;66401;42.016;21.454;2023-11-21T03:22:36;34.30;;;18.83;;
62788;SDS011;66401;42.016;21.454;2023-11-21T03:25:03;37.20;;;19.40;;
62788;SDS011;66401;42.016;21.454;2023-11-21T03:27:30;29.33;;;18.30;;
62788;SDS011;66401;42.016;21.454;2023-11-21T03:29:55;38.03;;;20.00;;
62788;SDS011;66401;42.016;21.454;2023-11-21T03:32:23;39.97;;;18.73;;
62788;SDS011;66401;42.016;21.454;2023-11-21T03:34:55;31.20;;;16.90;;
62788;SDS011;66401;42.016;21.454;2023-11-21T03:37:22;30.13;;;16.47;;
62788;SDS011;66401;42.016;21.454;2023-11-21T03:39:48;24.43;;;14.37;;
62788;SDS011;66401;42.016;21.454;2023-11-21T03:42:14;22.63;;;13.93;;
62788;SDS011;66401;42.016;21.454;2023-11-21T03:44:39;20.10;;;13.27;;
62788;SDS011;66401;42.016;21.454;2023-11-21T03:47:05;24.67;;;12.73;;
62788;SDS011;66401;42.016;21.454;2023-11-21T03:49:30;18.77;;;12.20;;
62788;SDS011;66401;42.016;21.454;2023-11-21T03:51:56;26.80;;;13.57;;
62788;SDS011;66401;42.016;21.454;2023-11-21T03:54:21;30.27;;;14.40;;
62788;SDS011;66401;42.016;21.454;2023-11-21T03:56:47;27.77;;;14.87;;
62788;SDS011;66401;42.016;21.454;2023-11-21T03:59:12;25.10;;;14.20;;
62788;SDS011;66401;42.016;21.454;2023-11-21T04:01:38;24.23;;;13.70;;
62788;SDS011;66401;42.016;21.454;2023-11-21T04:04:03;29.17;;;15.03;;
62788;SDS011;66401;42.016;21.454;2023-11-21T04:06:29;21.47;;;13.87;;
62788;SDS011;66401;42.016;21.454;2023-11-21T04:08:55;24.47;;;13.57;;
62788;SDS011;66401;42.016;21.454;2023-11-21T04:11:20;26.10;;;14.40;;
62788;SDS011;66401;42.016;21.454;2023-11-21T04:13:46;25.83;;;15.27;;
62788;SDS011;66401;42.016;21.454;2023-11-21T04:16:12;31.50;;;17.10;;
62788;SDS011;66401;42.016;21.454;2023-11-21T04:18:38;38.60;;;17.77;;
62788;SDS011;66401;42.016;21.454;2023-11-21T04:21:05;30.50;;;16.57;;
62788;SDS011;66401;42.016;21.454;2023-11-21T04:23:31;25.87;;;15.37;;
62788;SDS011;66401;42.016;21.454;2023-11-21T04:26:00;24.00;;;14.87;;
62788;SDS011;66401;42.016;21.454;2023-11-21T04:28:27;29.50;;;16.37;;
62788;SDS011;66401;42.016;21.454;2023-11-21T04:30:54;37.60;;;17.83;;
62788;SDS011;66401;42.016;21.454;2023-11-21T04:33:19;39.07;;;18.70;;
62788;SDS011;66401;42.016;21.454;2023-11-21T04:35:46;28.37;;;16.17;;
62788;SDS011;66401;42.016;21.454;2023-11-21T04:38:12;30.63;;;16.83;;
62788;SDS011;66401;42.016;21.454;2023-11-21T04:40:37;31.90;;;17.27;;
62788;SDS011;66401;42.016;21.454;2023-11-21T04:43:03;24.20;;;14.53;;
62788;SDS011;66401;42.016;21.454;2023-11-21T04:45:29;29.43;;;16.17;;
62788;SDS011;66401;42.016;21.454;2023-11-21T04:47:54;27.77;;;15.97;;
62788;SDS011;66401;42.016;21.454;2023-11-21T04:50:20;31.27;;;17.00;;
62788;SDS011;66401;42.016;21.454;2023-11-21T04:52:45;25.17;;;15.03;;
62788;SDS011;66401;42.016;21.454;2023-11-21T04:55:10;29.50;;;15.53;;
62788;SDS011;66401;42.016;21.454;2023-11-21T04:57:36;27.60;;;16.53;;
62788;SDS011;66401;42.016;21.454;2023-11-21T05:00:02;28.57;;;16.40;;
62788;SDS011;66401;42.016;21.454;2023-11-21T05:02:31;31.77;;;15.83;;
62788;SDS011;66401;42.016;21.454;2023-11-21T05:04:59;37.23;;;17.10;;
62788;SDS011;66401;42.016;21.454;2023-11-21T05:07:25;32.93;;;15.80;;
62788;SDS011;66401;42.016;21.454;2023-11-21T05:09:54;28.37;;;14.97;;
62788;SDS011;66401;42.016;21.454;2023-11-21T05:12:21;26.90;;;15.17;;
62788;SDS011;66401;42.016;21.454;2023-11-21T05:14:50;28.70;;;12.63;;
62788;SDS011;66401;42.016;21.454;2023-11-21T05:17:16;26.10;;;14.90;;
62788;SDS011;66401;42.016;21.454;2023-11-21T05:19:42;37.73;;;15.83;;
62788;SDS011;66401;42.016;21.454;2023-11-21T05:22:10;27.10;;;15.17;;
62788;SDS011;66401;42.016;21.454;2023-11-21T05:24:37;30.63;;;15.50;;
62788;SDS011;66401;42.016;21.454;2023-11-21T05:27:04;30.37;;;15.23;;
62788;SDS011;66401;42.016;21.454;2023-11-21T05:29:29;31.57;;;16.33;;
62788;SDS011;66401;42.016;21.454;2023-11-21T05:31:55;30.90;;;16.07;;
62788;SDS011;66401;42.016;21.454;2023-11-21T05:34:20;25.73;;;15.40;;
62788;SDS011;66401;42.016;21.454;2023-11-21T05:36:48;35.33;;;16.10;;
62788;SDS011;66401;42.016;21.454;2023-11-21T05:39:14;30.27;;;16.87;;
62788;SDS011;66401;42.016;21.454;2023-11-21T05:41:42;34.03;;;14.87;;
62788;SDS011;66401;42.016;21.454;2023-11-21T05:44:08;28.13;;;15.27;;
62788;SDS011;66401;42.016;21.454;2023-11-21T05:46:34;29.90;;;15.20;;
62788;SDS011;66401;42.016;21.454;2023-11-21T05:48:59;27.27;;;14.30;;
62788;SDS011;66401;42.016;21.454;2023-11-21T05:51:25;29.37;;;16.20;;
62788;SDS011;66401;42.016;21.454;2023-11-21T05:53:51;27.07;;;14.90;;
62788;SDS011;66401;42.016;21.454;2023-11-21T05:56:16;26.17;;;15.63;;
62788;SDS011;66401;42.016;21.454;2023-11-21T05:58:43;24.50;;;14.27;;
62788;SDS011;66401;42.016;21.454;2023-11-21T06:01:08;25.27;;;14.13;;
62788;SDS011;66401;42.016;21.454;2023-11-21T06:03:34;28.13;;;15.53;;
62788;SDS011;66401;42.016;21.454;2023-11-21T06:06:00;27.57;;;15.07;;
62788;SDS011;66401;42.016;21.454;2023-11-21T06:08:26;23.47;;;14.83;;
62788;SDS011;66401;42.016;21.454;2023-11-21T06:10:51;25.00;;;14.93;;
62788;SDS011;66401;42.016;21.454;2023-11-21T06:13:17;30.53;;;16.60;;
62788;SDS011;66401;42.016;21.454;2023-11-21T06:15:45;24.80;;;14.20;;
62788;SDS011;66401;42.016;21.454;2023-11-21T06:18:11;33.80;;;15.60;;
62788;SDS011;66401;42.016;21.454;2023-11-21T06:20:36;27.70;;;14.97;;
62788;SDS011;66401;42.016;21.454;2023-11-21T06:23:04;27.97;;;14.93;;
62788;SDS011;66401;42.016;21.454;2023-11-21T06:25:30;36.47;;;18.47;;
62788;SDS011;66401;42.016;21.454;2023-11-21T06:27:58;31.10;;;16.53;;
62788;SDS011;66401;42.016;21.454;2023-11-21T06:30:24;33.60;;;19.37;;
62788;SDS011;66401;42.016;21.454;2023-11-21T06:32:49;41.70;;;19.33;;
62788;SDS011;66401;42.016;21.454;2023-11-21T06:35:16;30.50;;;16.80;;
62788;SDS011;66401;42.016;21.454;2023-11-21T06:37:41;30.83;;;17.33;;
62788;SDS011;66401;42.016;21.454;2023-11-21T06:40:12;34.77;;;20.13;;
62788;SDS011;66401;42.016;21.454;2023-11-21T06:42:40;36.53;;;19.97;;
62788;SDS011;66401;42.016;21.454;2023-11-21T06:45:06;40.03;;;19.73;;
62788;SDS011;66401;42.016;21.454;2023-11-21T06:47:32;45.80;;;20.83;;
62788;SDS011;66401;42.016;21.454;2023-11-21T06:49:58;52.37;;;28.00;;
62788;SDS011;66401;42.016;21.454;2023-11-21T06:52:25;70.97;;;36.93;;
62788;SDS011;66401;42.016;21.454;2023-11-21T06:54:50;76.33;;;41.63;;
62788;SDS011;66401;42.016;21.454;2023-11-21T06:57:16;83.07;;;41.90;;
62788;SDS011;66401;42.016;21.454;2023-11-21T06:59:42;97.97;;;48.30;;
62788;SDS011;66401;42.016;21.454;2023-11-21T07:02:07;118.37;;;58.33;;
62788;SDS011;66401;42.016;21.454;2023-11-21T07:04:33;79.40;;;40.00;;
62788;SDS011;66401;42.016;21.454;2023-11-21T07:06:59;85.67;;;42.33;;
62788;SDS011;66401;42.016;21.454;2023-11-21T07:09:24;68.60;;;38.70;;
62788;SDS011;66401;42.016;21.454;2023-11-21T07:11:54;74.47;;;38.47;;
62788;SDS011;66401;42.016;21.454;2023-11-21T07:14:20;80.43;;;41.00;;
62788;SDS011;66401;42.016;21.454;2023-11-21T07:16:46;88.53;;;41.20;;
62788;SDS011;66401;42.016;21.454;2023-11-21T07:19:12;67.43;;;35.47;;
62788;SDS011;66401;42.016;21.454;2023-11-21T07:21:38;64.40;;;34.43;;
62788;SDS011;66401;42.016;21.454;2023-11-21T07:24:04;61.07;;;33.40;;
62788;SDS011;66401;42.016;21.454;2023-11-21T07:26:31;55.07;;;29.70;;
62788;SDS011;66401;42.016;21.454;2023-11-21T07:28:58;42.17;;;23.13;;
62788;SDS011;66401;42.016;21.454;2023-11-21T07:31:24;39.30;;;21.47;;
62788;SDS011;66401;42.016;21.454;2023-11-21T07:33:49;45.40;;;23.13;;
62788;SDS011;66401;42.016;21.454;2023-11-21T07:36:16;50.77;;;26.97;;
62788;SDS011;66401;42.016;21.454;2023-11-21T07:38:48;70.37;;;34.77;;
62788;SDS011;66401;42.016;21.454;2023-11-21T07:41:14;70.90;;;36.93;;
62788;SDS011;66401;42.016;21.454;2023-11-21T07:43:43;74.77;;;38.83;;
62788;SDS011;66401;42.016;21.454;2023-11-21T07:46:11;101.60;;;51.27;;
62788;SDS011;66401;42.016;21.454;2023-11-21T07:48:38;108.73;;;54.67;;
62788;SDS011;66401;42.016;21.454;2023-11-21T07:51:04;104.30;;;54.97;;
62788;SDS011;66401;42.016;21.454;2023-11-21T07:53:30;108.07;;;53.10;;
62788;SDS011;66401;42.016;21.454;2023-11-21T07:55:58;68.37;;;36.83;;
62788;SDS011;66401;42.016;21.454;2023-11-21T07:58:28;66.30;;;36.03;;
62788;SDS011;66401;42.016;21.454;2023-11-21T08:00:53;57.03;;;32.63;;
62788;SDS011;66401;42.016;21.454;2023-11-21T08:03:19;51.23;;;28.00;;
62788;SDS011;66401;42.016;21.454;2023-11-21T08:05:44;57.17;;;30.73;;
62788;SDS011;66401;42.016;21.454;2023-11-21T08:08:10;48.90;;;27.50;;
62788;SDS011;66401;42.016;21.454;2023-11-21T08:10:36;44.13;;;24.43;;
62788;SDS011;66401;42.016;21.454;2023-11-21T08:13:02;47.03;;;24.87;;
62788;SDS011;66401;42.016;21.454;2023-11-21T08:15:28;48.23;;;25.90;;
62788;SDS011;66401;42.016;21.454;2023-11-21T08:17:54;58.13;;;28.17;;
62788;SDS011;66401;42.016;21.454;2023-11-21T08:20:20;57.40;;;30.60;;
62788;SDS011;66401;42.016;21.454;2023-11-21T08:22:47;60.47;;;28.50;;
62788;SDS011;66401;42.016;21.454;2023-11-21T08:25:13;48.90;;;24.80;;
62788;SDS011;66401;42.016;21.454;2023-11-21T08:27:39;48.37;;;24.30;;
62788;SDS011;66401;42.016;21.454;2023-11-21T08:30:04;57.83;;;27.60;;
62788;SDS011;66401;42.016;21.454;2023-11-21T08:32:30;60.17;;;32.40;;
62788;SDS011;66401;42.016;21.454;2023-11-21T08:34:58;60.03;;;29.27;;
62788;SDS011;66401;42.016;21.454;2023-11-21T08:37:24;57.53;;;29.43;;
62788;SDS011;66401;42.016;21.454;2023-11-21T08:39:52;61.20;;;28.93;;
62788;SDS011;66401;42.016;21.454;2023-11-21T08:42:18;60.43;;;32.80;;
62788;SDS011;66401;42.016;21.454;2023-11-21T08:44:44;71.57;;;34.60;;
62788;SDS011;66401;42.016;21.454;2023-11-21T08:47:11;92.60;;;39.97;;
62788;SDS011;66401;42.016;21.454;2023-11-21T08:49:36;77.00;;;37.57;;
62788;SDS011;66401;42.016;21.454;2023-11-21T08:52:03;74.60;;;35.77;;
62788;SDS011;66401;42.016;21.454;2023-11-21T08:54:30;86.60;;;37.50;;
62788;SDS011;66401;42.016;21.454;2023-11-21T08:56:56;70.47;;;33.73;;
62788;SDS011;66401;42.016;21.454;2023-11-21T08:59:24;83.30;;;38.40;;
62788;SDS011;66401;42.016;21.454;2023-11-21T09:01:50;93.23;;;41.73;;
62788;SDS011;66401;42.016;21.454;2023-11-21T09:04:16;78.30;;;40.37;;
62788;SDS011;66401;42.016;21.454;2023-11-21T09:06:41;83.20;;;41.10;;
62788;SDS011;66401;42.016;21.454;2023-11-21T09:09:07;94.10;;;45.30;;
62788;SDS011;66401;42.016;21.454;2023-11-21T09:11:33;100.80;;;46.67;;
62788;SDS011;66401;42.016;21.454;2023-11-21T09:13:59;102.57;;;47.10;;
62788;SDS011;66401;42.016;21.454;2023-11-21T09:16:25;96.27;;;49.47;;
62788;SDS011;66401;42.016;21.454;2023-11-21T09:18:50;94.07;;;47.03;;
62788;SDS011;66401;42.016;21.454;2023-11-21T09:21:16;103.20;;;49.13;;
62788;SDS011;66401;42.016;21.454;2023-11-21T09:23:44;99.77;;;49.83;;
62788;SDS011;66401;42.016;21.454;2023-11-21T09:26:10;95.83;;;50.67;;
62788;SDS011;66401;42.016;21.454;2023-11-21T09:28:35;96.40;;;49.00;;
62788;SDS011;66401;42.016;21.454;2023-11-21T09:31:06;97.63;;;47.47;;
62788;SDS011;66401;42.016;21.454;2023-11-21T09:33:34;82.97;;;44.53;;
62788;SDS011;66401;42.016;21.454;2023-11-21T09:35:59;88.07;;;42.60;;
62788;SDS011;66401;42.016;21.454;2023-11-21T09:38:26;79.33;;;43.40;;
62788;SDS011;66401;42.016;21.454;2023-11-21T09:40:54;92.23;;;42.80;;
62788;SDS011;66401;42.016;21.454;2023-11-21T09:43:20;97.13;;;44.47;;
62788;SDS011;66401;42.016;21.454;2023-11-21T09:45:48;94.93;;;44.80;;
62788;SDS011;66401;42.016;21.454;2023-11-21T09:48:19;73.37;;;37.20;;
62788;SDS011;66401;42.016;21.454;2023-11-21T09:50:46;73.93;;;36.60;;
62788;SDS011;66401;42.016;21.454;2023-11-21T09:53:13;72.40;;;38.90;;
62788;SDS011;66401;42.016;21.454;2023-11-21T09:55:49;70.00;;;38.03;;
62788;SDS011;66401;42.016;21.454;2023-11-21T09:58:17;77.20;;;39.87;;
62788;SDS011;66401;42.016;21.454;2023-11-21T10:00:45;69.13;;;39.00;;
62788;SDS011;66401;42.016;21.454;2023-11-21T10:03:12;69.07;;;38.47;;
62788;SDS011;66401;42.016;21.454;2023-11-21T10:05:38;73.73;;;40.23;;
62788;SDS011;66401;42.016;21.454;2023-11-21T10:08:08;85.57;;;44.10;;
62788;SDS011;66401;42.016;21.454;2023-11-21T10:10:35;80.20;;;44.73;;
62788;SDS011;66401;42.016;21.454;2023-11-21T10:13:02;83.20;;;41.63;;
62788;SDS011;66401;42.016;21.454;2023-11-21T10:15:32;86.20;;;42.37;;
62788;SDS011;66401;42.016;21.454;2023-11-21T10:17:59;90.27;;;40.77;;
62788;SDS011;66401;42.016;21.454;2023-11-21T10:20:32;82.10;;;41.73;;
62788;SDS011;66401;42.016;21.454;2023-11-21T10:23:03;83.63;;;42.43;;
62788;SDS011;66401;42.016;21.454;2023-11-21T10:25:32;84.07;;;41.50;;
62788;SDS011;66401;42.016;21.454;2023-11-21T10:27:58;87.80;;;44.93;;
62788;SDS011;66401;42.016;21.454;2023-11-21T10:33:02;81.73;;;39.37;;
62788;SDS011;66401;42.016;21.454;2023-11-21T10:35:47;82.30;;;39.83;;
62788;SDS011;66401;42.016;21.454;2023-11-21T10:38:19;79.07;;;38.57;;
62788;SDS011;66401;42.016;21.454;2023-11-21T10:40:49;64.50;;;33.13;;
62788;SDS011;66401;42.016;21.454;2023-11-21T10:43:15;69.27;;;31.87;;
62788;SDS011;66401;42.016;21.454;2023-11-21T10:45:41;69.67;;;33.53;;
62788;SDS011;66401;42.016;21.454;2023-11-21T10:48:09;75.47;;;34.97;;
62788;SDS011;66401;42.016;21.454;2023-11-21T10:50:36;66.13;;;32.77;;
62788;SDS011;66401;42.016;21.454;2023-11-21T10:53:03;71.93;;;35.87;;
62788;SDS011;66401;42.016;21.454;2023-11-21T10:55:30;62.93;;;33.33;;
62788;SDS011;66401;42.016;21.454;2023-11-21T10:57:58;69.27;;;33.77;;
62788;SDS011;66401;42.016;21.454;2023-11-21T11:00:27;72.63;;;34.03;;
62788;SDS011;66401;42.016;21.454;2023-11-21T11:02:54;72.23;;;33.30;;
62788;SDS011;66401;42.016;21.454;2023-11-21T11:05:20;81.80;;;37.67;;
62788;SDS011;66401;42.016;21.454;2023-11-21T11:07:57;78.40;;;37.27;;
62788;SDS011;66401;42.016;21.454;2023-11-21T11:10:27;96.93;;;45.67;;
62788;SDS011;66401;42.016;21.454;2023-11-21T11:12:54;95.80;;;42.97;;
62788;SDS011;66401;42.016;21.454;2023-11-21T11:15:20;87.20;;;42.90;;
62788;SDS011;66401;42.016;21.454;2023-11-21T11:17:46;82.50;;;40.20;;
62788;SDS011;66401;42.016;21.454;2023-11-21T11:20:14;86.40;;;43.13;;
62788;SDS011;66401;42.016;21.454;2023-11-21T11:28:14;88.60;;;43.33;;
62788;SDS011;66401;42.016;21.454;2023-11-21T11:30:53;85.17;;;39.33;;
62788;SDS011;66401;42.016;21.454;2023-11-21T11:33:54;89.37;;;40.70;;
62788;SDS011;66401;42.016;21.454;2023-11-21T11:36:26;78.20;;;42.10;;
62788;SDS011;66401;42.016;21.454;2023-11-21T11:39:01;88.63;;;40.93;;
62788;SDS011;66401;42.016;21.454;2023-11-21T11:41:30;94.17;;;41.33;;
62788;SDS011;66401;42.016;21.454;2023-11-21T11:44:02;78.20;;;37.83;;
62788;SDS011;66401;42.016;21.454;2023-11-21T11:49:54;78.67;;;36.47;;
62788;SDS011;66401;42.016;21.454;2023-11-21T11:55:01;88.30;;;42.17;;
62788;SDS011;66401;42.016;21.454;2023-11-21T11:57:33;75.20;;;34.40;;
62788;SDS011;66401;42.016;21.454;2023-11-21T12:02:53;82.50;;;38.63;;
62788;SDS011;66401;42.016;21.454;2023-11-21T12:05:24;77.77;;;37.17;;
62788;SDS011;66401;42.016;21.454;2023-11-21T12:07:54;78.13;;;37.57;;
62788;SDS011;66401;42.016;21.454;2023-11-21T12:10:23;71.27;;;35.43;;
62788;SDS011;66401;42.016;21.454;2023-11-21T12:12:50;74.00;;;35.27;;
62788;SDS011;66401;42.016;21.454;2023-11-21T12:15:17;67.33;;;31.13;;
62788;SDS011;66401;42.016;21.454;2023-11-21T12:17:44;62.67;;;28.53;;
62788;SDS011;66401;42.016;21.454;2023-11-21T12:20:11;58.17;;;29.13;;
62788;SDS011;66401;42.016;21.454;2023-11-21T12:23:02;50.73;;;23.03;;
62788;SDS011;66401;42.016;21.454;2023-11-21T12:25:28;40.53;;;21.33;;
62788;SDS011;66401;42.016;21.454;2023-11-21T12:27:57;55.23;;;21.73;;
62788;SDS011;66401;42.016;21.454;2023-11-21T12:30:27;45.03;;;21.80;;
62788;SDS011;66401;42.016;21.454;2023-11-21T12:32:56;44.57;;;21.43;;
62788;SDS011;66401;42.016;21.454;2023-11-21T12:35:33;54.37;;;21.87;;
62788;SDS011;66401;42.016;21.454;2023-11-21T12:37:59;48.67;;;21.90;;
62788;SDS011;66401;42.016;21.454;2023-11-21T12:40:27;48.80;;;23.17;;
62788;SDS011;66401;42.016;21.454;2023-11-21T12:42:57;56.17;;;23.73;;
62788;SDS011;66401;42.016;21.454;2023-11-21T12:45:26;51.27;;;22.30;;
62788;SDS011;66401;42.016;21.454;2023-11-21T12:47:59;48.10;;;22.97;;
62788;SDS011;66401;42.016;21.454;2023-11-21T12:50:33;53.73;;;22.03;;
62788;SDS011;66401;42.016;21.454;2023-11-21T12:53:06;46.53;;;21.73;;
62788;SDS011;66401;42.016;21.454;2023-11-21T12:55:35;52.90;;;23.83;;
62788;SDS011;66401;42.016;21.454;2023-11-21T12:58:04;62.70;;;25.13;;
62788;SDS011;66401;42.016;21.454;2023-11-21T13:00:44;53.77;;;26.73;;
62788;SDS011;66401;42.016;21.454;2023-11-21T13:03:12;62.30;;;27.27;;
62788;SDS011;66401;42.016;21.454;2023-11-21T13:05:42;65.87;;;32.70;;
62788;SDS011;66401;42.016;21.454;2023-11-21T13:08:12;59.73;;;25.93;;
62788;SDS011;66401;42.016;21.454;2023-11-21T13:10:39;57.97;;;25.60;;
62788;SDS011;66401;42.016;21.454;2023-11-21T13:13:07;62.87;;;27.77;;
62788;SDS011;66401;42.016;21.454;2023-11-21T13:15:34;59.87;;;24.77;;
62788;SDS011;66401;42.016;21.454;2023-11-21T13:18:03;53.33;;;25.03;;
62788;SDS011;66401;42.016;21.454;2023-11-21T13:20:29;60.70;;;25.43;;
62788;SDS011;66401;42.016;21.454;2023-11-21T13:22:57;55.43;;;26.90;;
62788;SDS011;66401;42.016;21.454;2023-11-21T13:25:24;57.93;;;26.43;;
62788;SDS011;66401;42.016;21.454;2023-11-21T13:27:53;64.57;;;28.27;;
62788;SDS011;66401;42.016;21.454;2023-11-21T13:30:22;58.17;;;27.57;;
62788;SDS011;66401;42.016;21.454;2023-11-21T13:32:55;60.03;;;29.60;;
62788;SDS011;66401;42.016;21.454;2023-11-21T13:35:26;62.57;;;28.70;;
62788;SDS011;66401;42.016;21.454;2023-11-21T13:38:09;68.23;;;29.77;;
62788;SDS011;66401;42.016;21.454;2023-11-21T13:40:37;57.43;;;27.03;;
62788;SDS011;66401;42.016;21.454;2023-11-21T13:43:15;58.00;;;27.43;;
62788;SDS011;66401;42.016;21.454;2023-11-21T13:45:43;56.57;;;26.50;;
62788;SDS011;66401;42.016;21.454;2023-11-21T13:48:11;58.77;;;26.60;;
62788;SDS011;66401;42.016;21.454;2023-11-21T13:50:39;57.33;;;29.53;;
62788;SDS011;66401;42.016;21.454;2023-11-21T13:53:13;61.60;;;29.33;;
62788;SDS011;66401;42.016;21.454;2023-11-21T13:55:48;65.90;;;30.77;;
62788;SDS011;66401;42.016;21.454;2023-11-21T13:58:16;58.33;;;28.60;;
62788;SDS011;66401;42.016;21.454;2023-11-21T14:00:45;67.63;;;28.57;;
62788;SDS011;66401;42.016;21.454;2023-11-21T14:03:12;58.67;;;29.00;;
62788;SDS011;66401;42.016;21.454;2023-11-21T14:05:46;64.67;;;28.67;;
62788;SDS011;66401;42.016;21.454;2023-11-21T14:08:20;68.67;;;30.03;;
62788;SDS011;66401;42.016;21.454;2023-11-21T14:10:48;57.80;;;29.33;;
62788;SDS011;66401;42.016;21.454;2023-11-21T14:13:20;71.27;;;31.20;;
62788;SDS011;66401;42.016;21.454;2023-11-21T14:15:48;67.53;;;31.20;;
62788;SDS011;66401;42.016;21.454;2023-11-21T14:18:16;65.27;;;31.03;;
62788;SDS011;66401;42.016;21.454;2023-11-21T14:20:46;82.60;;;37.13;;
62788;SDS011;66401;42.016;21.454;2023-11-21T14:23:11;100.60;;;42.80;;
62788;SDS011;66401;42.016;21.454;2023-11-21T14:25:37;84.93;;;41.20;;
62788;SDS011;66401;42.016;21.454;2023-11-21T14:28:04;81.47;;;39.90;;
62788;SDS011;66401;42.016;21.454;2023-11-21T14:30:31;87.53;;;40.63;;